Have a Safe July 4th! 

Flight Track Log - Related Links

Times and Time Zones

All times are in EDT time to prevent confusion due to time zone crossing. See the AMF4328 flight status page for this flight to view local times or setup timezone preferences in your user account.

Time Position Orientation Groundspeed Altitude Reporting Facility
EDT Latitude Longitude Course Direction KTS MPH feet Rate Location/Type
Sat 04:07:10 AM 32.8833 -97.0500 232° Southwest 146 168 1,500  Level Dallas / Fort Worth TRACON
Sat 04:08:22 AM 32.8500 -97.1000 232° Southwest 176 203 2,900 773 Climbing Dallas / Fort Worth TRACON
Sat 04:09:22 AM 32.8000 -97.1167 196° South 195 224 3,200 1,200 Climbing Dallas / Fort Worth TRACON
Sat 04:10:22 AM 32.7667 -97.1500 220° Southwest 183 211 5,300 1,857 Climbing Dallas / Fort Worth TRACON
Sat 04:10:46 AM 32.7350 -97.1592 194° South 185 213 5,800 1,714 Climbing Fort Worth Center
Sat 04:11:46 AM 32.6953 -97.1739 197° South 185 213 7,700 1,900 Climbing Fort Worth Center
Sat 04:12:46 AM 32.6392 -97.1989 201° Southwest 195 224 9,600 1,650 Climbing Fort Worth Center
Sat 04:13:46 AM 32.5911 -97.2186 199° South 207 238 11,000 1,500 Climbing Fort Worth Center
Sat 04:14:46 AM 32.5283 -97.2408 197° South 212 244 12,600 1,450 Climbing Fort Worth Center
Sat 04:15:46 AM 32.4764 -97.2656 202° Southwest 217 250 13,900 1,600 Climbing Fort Worth Center
Sat 04:16:46 AM 32.4094 -97.2928 199° South 229 264 15,800 1,650 Climbing Fort Worth Center
Sat 04:17:46 AM 32.3553 -97.3150 199° South 229 264 17,200 1,450 Climbing Fort Worth Center
Sat 04:18:46 AM 32.2842 -97.3444 199° South 234 269 18,700 1,450 Climbing Fort Worth Center
Sat 04:19:46 AM 32.2258 -97.3667 198° South 247 284 20,100 650 Climbing Fort Worth Center
Sat 04:20:46 AM 32.1506 -97.3986 200° South 259 298 20,000 -50 Descending Fort Worth Center
Sat 04:21:46 AM 32.0881 -97.4256 200° South 269 310 20,000  Level Fort Worth Center
Sat 04:22:46 AM 32.0086 -97.4575 199° South 269 310 20,000  Level Fort Worth Center
Sat 04:24:38 AM 31.8744 -97.5122 199° South 274 315 20,000  Level Houston Center
Sat 04:25:38 AM 31.8133 -97.5383 200° South 275 316 20,000  Level Houston Center
Sat 04:26:38 AM 31.7414 -97.5694 200° South 275 316 20,000  Level Houston Center
Sat 04:27:39 AM 31.6694 -97.5972 198° South 271 312 20,000  Level Houston Center
Sat 04:28:39 AM 31.5972 -97.6269 199° South 271 312 20,000  Level Houston Center
Sat 04:29:39 AM 31.5261 -97.6583 201° Southwest 272 313 20,000  Level Houston Center
Sat 04:30:39 AM 31.4553 -97.6867 199° South 268 308 20,000  Level Houston Center
Sat 04:31:39 AM 31.3836 -97.7150 199° South 269 310 20,000  Level Houston Center
Sat 04:32:40 AM 31.3128 -97.7458 200° South 270 311 20,000  Level Houston Center
Sat 04:33:40 AM 31.2417 -97.7753 199° South 269 310 20,000  Level Houston Center
Sat 04:34:40 AM 31.1736 -97.8114 204° Southwest 268 308 20,000  Level Houston Center
Sat 04:35:40 AM 31.1044 -97.8461 203° Southwest 269 310 20,000  Level Houston Center
Sat 04:36:40 AM 31.0339 -97.8781 201° Southwest 269 310 20,000  Level Houston Center
Sat 04:37:41 AM 30.9644 -97.9142 204° Southwest 272 313 20,000  Level Houston Center
Sat 04:38:41 AM 30.8956 -97.9469 202° Southwest 267 307 20,000  Level Houston Center
Sat 04:39:41 AM 30.8256 -97.9803 202° Southwest 269 310 20,000  Level Houston Center
Sat 04:40:41 AM 30.7564 -98.0142 203° Southwest 268 308 20,000  Level Houston Center
Sat 04:41:41 AM 30.6869 -98.0486 203° Southwest 269 310 20,000  Level Houston Center
Sat 04:42:41 AM 30.6167 -98.0819 202° Southwest 270 311 20,000  Level Houston Center
Sat 04:43:42 AM 30.5472 -98.1153 202° Southwest 269 310 20,000  Level Houston Center
Sat 04:44:42 AM 30.4772 -98.1494 203° Southwest 272 313 20,000  Level Houston Center
Sat 04:45:42 AM 30.4069 -98.1842 203° Southwest 272 313 20,000 -650 Level Houston Center
Sat 04:46:42 AM 30.3350 -98.2194 203° Southwest 277 319 18,700 -1,342 Descending Houston Center
Sat 04:46:58 AM 30.3075 -98.2308 200° South 292 336 18,300 -1,200 Descending Houston Center
Sat 04:47:42 AM 30.2528 -98.2489 196° South 299 344 17,500 -1,273 Descending Houston Center
Sat 04:48:04 AM 30.2225 -98.2631 202° Southwest 304 350 16,900 -1,900 Descending Houston Center
Sat 04:48:42 AM 30.1733 -98.2822 199° South 302 348 15,600 -1,672 Descending Houston Center
Sat 04:49:05 AM 30.1436 -98.2969 203° Southwest 303 349 15,200 -1,574 Descending Houston Center
Sat 04:49:43 AM 30.0978 -98.3206 204° Southwest 297 342 14,000 -1,574 Descending Houston Center
Sat 04:50:06 AM 30.0722 -98.3419 216° Southwest 294 338 13,600 -1,400 Descending Houston Center
Sat 04:50:43 AM 30.0294 -98.3711 211° Southwest 289 333 12,600 -2,000 Descending Houston Center
Sat 04:51:06 AM 29.9994 -98.3967 216° Southwest 285 328 11,600 -1,900 Descending Houston Center
Sat 04:51:43 AM 29.9650 -98.4231 214° Southwest 283 326 10,700 -1,770 Descending Houston Center
Sat 04:52:07 AM 29.9369 -98.4478 217° Southwest 281 323 9,800 -2,300 Descending Houston Center
Sat 04:52:43 AM 29.8986 -98.4786 215° Southwest 261 300 8,400 -1,800 Descending Houston Center
Sat 04:53:07 AM 29.8744 -98.4986 216° Southwest 271 312 8,000 -1,300 Descending Houston Center
Sat 04:53:43 AM 29.8403 -98.5264 215° Southwest 254 292 7,100 -1,475 Descending Houston Center
Sat 04:54:08 AM 29.8178 -98.5439 214° Southwest 248 285 6,500 -1,400 Descending Houston Center
Sat 04:54:43 AM 29.7811 -98.5672 209° Southwest 248 285 5,700 -1,377 Descending Houston Center
Sat 04:55:09 AM 29.7583 -98.5822 210° Southwest 242 278 5,100 -1,300 Descending Houston Center
Sat 04:55:43 AM 29.7308 -98.6169 228° Southwest 247 284 4,400 -1,000 Descending Houston Center
Sat 04:56:09 AM 29.7128 -98.6383 226° Southwest 240 276 4,100 -885 Descending Houston Center
Sat 04:56:44 AM 29.6753 -98.6350 176° South 231 266 3,500 -590 Descending Houston Center
Sat 04:57:10 AM 29.6550 -98.6258 159° South 218 251 3,500 -300 Level Houston Center
Sat 04:57:44 AM 29.6292 -98.5961 135° Southeast 216 249 3,200 -600 Descending Houston Center
Sat 04:58:10 AM 29.6106 -98.5736 134° Southeast 215 247 2,900 -900 Descending Houston Center
Sat 04:58:44 AM 29.5889 -98.5447 131° Southeast 217 250 2,300 -1,180 Descending Houston Center
Sat 04:59:11 AM 29.5722 -98.5228 131° Southeast 210 242 1,700 -1,000 Descending Houston Center
Sat 04:59:44 AM 29.5572 -98.5000 127° Southeast 171 197 1,300 -689 Descending Houston Center
Sat 05:00:12 AM 29.5461 -98.4900 142° Southeast 103 119 1,000 -500 Descending Houston Center
Sat 05:00:44 AM 29.5386 -98.4772 124° Southeast 107 123 800 -375 Descending Houston Center
Sat 05:02:00 AM 29.5333 -98.4667 133° Southeast  Level FlightAware Approximate
Sat 05:09:00 AM 29.5340 -98.4691 133° Southeast  Level Estimated

Login

Don't have an account? Register now (free) for customized features, flight alerts, and more!